Mossbank, Canada
Current Conditions -  °F | °C
As of 10:00 PM on Wednesday 17 Dec 2014 (Local Time) from CYQR Reporting Station
Light Snow Light Snow  
Wind Chill: -16°   Ceiling: 800
Heat Index: -8°   Visibility: 12mi
Dew Point: -10°   Wind: 15mph
Humidity: 86%   Direction: 170°S
Pressure: 30.04"   Gusts: NA
Location:  49.93°N, 105.97°W
Report Text: CYQR 180400Z 17013KT 12SM -SN OVC008 M08/M10 A3004 RMK SC8 SLP213
Loading
Personal Weather Stations






























Interactive Weather Map New forecast layout! Learn more

10-Day Weather Forecast

Advertisements
Track Severe Weather on mobile